SARI METAR and TAF weather

Enter ICAO airport designator
Station Type Date Time Source
SARI METAR 2019/02/16 03:00 UTC NOAA

SARI 160300Z 23003KT 9999 FEW030 SCT100 22/19 Q1009


Station Type Date Time Source
SARI Decoded METAR 2019/02/16 03:00 UTC NOAA

Iguazu Aerodrome, Argentina (SARI) 25-44S 054-28W 270M
Feb 15, 2019 - 10:00 PM EST / 2019.02.16 0300 UTC
Wind: from the SW (230 degrees) at 3 MPH (3 KT):0
Visibility: greater than 7 mile(s):0
Sky conditions: partly cloudy
Temperature: 71 F (22 C)
Dew Point: 66 F (19 C)
Relative Humidity: 83%
Pressure (altimeter): 29.80 in. Hg (1009 hPa)
ob: SARI 160300Z 23003KT 9999 FEW030 SCT100 22/19 Q1009
cycle: 3

Station Type Date Time Source
SARI TAF 2019/02/16 00:00 UTC NOAA

TAF SARI 152300Z 1600/1624 20005KT 9999 SCT030 BKN090 TX30/1618 TN22/1609Z
BECMG 1604/1608 BKN010 BKN100 PROB40 1608/1611 5000 BR
BECMG 1614/1616 SCT025 FEW045TCU


Example: see airport list